Time;durP1;ratioP1;P1;durP2;ratioP2;P2;SDS_P1;SDS_P2;PMS_P1;PMS_P2;Temp;Humidity;BMP_temperature;BMP_pressure;BME280_temperature;BME280_humidity;BME280_pressure;Samples;Min_cycle;Max_cycle;Signal;HPM_P1;HPM_P2
2022/02/05 00:00:32;;;;;;;0.70;0.67;;;;;;;3.86;100.00;98370.22;5115234;28;20220;-67
2022/02/05 00:03:12;;;;;;;0.70;0.70;;;;;;;3.74;100.00;98381.16;5115045;28;20210;-67
2022/02/05 00:05:45;;;;;;;0.73;0.73;;;;;;;3.67;100.00;98389.31;5114085;28;20212;-67
2022/02/05 00:08:24;;;;;;;0.73;0.70;;;;;;;3.61;100.00;98390.38;5113117;28;20241;-67
2022/02/05 00:11:13;;;;;;;0.80;0.80;;;;;;;3.62;100.00;98393.84;5110921;28;20209;-67
2022/02/05 00:38:15;;;;;;;1.20;1.07;;;;;;;3.37;100.00;98421.81;5112759;28;20311;-67
2022/02/05 00:39:00;;;;;;;1.63;1.30;;;;;;;3.30;100.00;98431.59;5114133;28;20217;-67
2022/02/05 00:41:30;;;;;;;2.60;1.07;;;;;;;3.11;100.00;98440.16;5114756;28;20218;-68
2022/02/05 00:43:59;;;;;;;3.90;1.30;;;;;;;3.03;100.00;98444.78;5114013;28;20711;-67
2022/02/05 00:46:30;;;;;;;1.77;1.40;;;;;;;2.83;100.00;98445.47;5112390;28;20584;-68
2022/02/05 00:48:57;;;;;;;1.47;1.30;;;;;;;2.79;100.00;98449.09;5114225;28;20229;-67
2022/02/05 00:51:29;;;;;;;1.33;1.23;;;;;;;2.73;100.00;98459.72;5114178;28;20210;-67
2022/02/05 00:54:05;;;;;;;1.60;1.27;;;;;;;2.55;100.00;98468.16;5108460;28;20309;-67
2022/02/05 00:56:51;;;;;;;1.70;1.40;;;;;;;2.50;100.00;98472.66;5114003;28;20278;-67
2022/02/05 00:59:19;;;;;;;2.10;1.30;;;;;;;2.47;100.00;98480.59;5112304;28;20245;-67
2022/02/05 01:01:47;;;;;;;2.20;1.50;;;;;;;2.39;100.00;98484.34;5112934;28;20210;-67
2022/02/05 01:04:14;;;;;;;2.47;1.50;;;;;;;2.31;100.00;98488.91;5114000;28;20206;-67
2022/02/05 01:06:42;;;;;;;1.80;1.33;;;;;;;2.29;100.00;98494.22;5113683;28;20221;-67
2022/02/05 01:09:13;;;;;;;2.20;1.40;;;;;;;2.23;100.00;98494.41;5113956;28;20221;-67
2022/02/05 01:11:40;;;;;;;3.00;1.33;;;;;;;2.18;100.00;98498.88;5108591;28;20260;-67
2022/02/05 01:14:11;;;;;;;2.07;1.47;;;;;;;2.14;100.00;98502.47;5113670;28;20234;-67
2022/02/05 01:16:50;;;;;;;2.27;1.30;;;;;;;2.06;100.00;98491.44;5106230;28;20220;-68
2022/02/05 01:19:33;;;;;;;1.43;1.20;;;;;;;2.05;100.00;98500.16;5113748;28;20237;-67
2022/02/05 01:22:03;;;;;;;3.03;1.30;;;;;;;1.95;100.00;98503.94;5113699;28;20267;-67
2022/02/05 01:24:30;;;;;;;2.07;1.30;;;;;;;1.92;100.00;98492.75;5106203;28;20327;-67
2022/02/05 01:27:02;;;;;;;2.47;1.20;;;;;;;1.83;100.00;98493.84;5111919;28;20218;-67
2022/02/05 01:29:39;;;;;;;1.83;1.13;;;;;;;1.86;100.00;98499.00;5113584;28;20222;-67
2022/02/05 01:32:11;;;;;;;2.70;1.13;;;;;;;1.80;100.00;98512.19;5111529;28;20209;-67
2022/02/05 01:34:43;;;;;;;3.53;1.47;;;;;;;1.82;100.00;98512.13;5113243;28;20727;-67
2022/02/05 01:51:01;;;;;;;2.93;1.40;;;;;;;1.61;100.00;98539.66;5113157;28;20591;-67
2022/02/05 01:53:37;;;;;;;4.13;1.60;;;;;;;1.57;100.00;98543.25;5111667;28;20218;-67
2022/02/05 01:58:59;;;;;;;3.63;1.53;;;;;;;1.52;100.00;98544.25;5111489;28;20216;-67
2022/02/05 02:07:12;;;;;;;3.33;1.50;;;;;;;1.41;100.00;98538.50;5113073;28;20213;-67
2022/02/05 02:09:54;;;;;;;2.97;1.70;;;;;;;1.39;100.00;98546.34;5114039;28;20222;-67
2022/02/05 02:12:24;;;;;;;1.43;1.33;;;;;;;1.30;100.00;98548.34;5116016;28;20225;-68
2022/02/05 02:14:58;;;;;;;2.43;1.60;;;;;;;1.26;100.00;98547.56;5117177;28;20271;-67
2022/02/05 02:20:27;;;;;;;2.83;1.43;;;;;;;1.32;100.00;98556.94;5104926;28;20298;-67
2022/02/05 02:23:08;;;;;;;2.50;1.23;;;;;;;1.29;100.00;98563.09;5116868;28;20214;-67
2022/02/05 02:25:48;;;;;;;1.77;1.50;;;;;;;1.21;100.00;98559.84;5110621;28;20253;-67
2022/02/05 02:28:20;;;;;;;3.40;1.50;;;;;;;1.16;100.00;98561.69;5116809;28;20674;-67
2022/02/05 02:30:56;;;;;;;5.67;2.10;;;;;;;1.08;100.00;98562.78;5117079;28;20217;-67
2022/02/05 02:33:29;;;;;;;3.67;1.50;;;;;;;1.12;100.00;98565.25;5109662;28;20255;-67
2022/02/05 02:35:56;;;;;;;2.10;1.67;;;;;;;1.09;100.00;98560.16;5116529;28;20214;-67
2022/02/05 02:38:32;;;;;;;2.23;1.30;;;;;;;1.04;100.00;98562.00;5116510;28;20268;-67
2022/02/05 02:41:03;;;;;;;2.30;1.50;;;;;;;1.01;100.00;98567.31;5115498;28;20214;-67
2022/02/05 02:43:32;;;;;;;2.87;1.40;;;;;;;1.02;100.00;98568.13;5115099;28;20297;-67
2022/02/05 02:45:58;;;;;;;2.73;1.50;;;;;;;1.00;100.00;98560.34;5116533;28;20214;-67
2022/02/05 02:48:26;;;;;;;5.00;2.67;;;;;;;0.97;100.00;98568.25;5116466;28;20209;-68
2022/02/05 02:59:07;;;;;;;3.47;1.70;;;;;;;0.89;100.00;98570.19;5100105;28;20218;-67
2022/02/05 03:01:36;;;;;;;2.60;1.80;;;;;;;0.96;100.00;98571.75;5116317;28;20218;-67
2022/02/05 03:04:03;;;;;;;2.47;2.10;;;;;;;0.93;100.00;98578.78;5116395;28;20217;-67
2022/02/05 03:06:30;;;;;;;4.60;1.90;;;;;;;0.86;100.00;98572.84;5115892;28;20225;-67
2022/02/05 03:08:57;;;;;;;3.37;2.20;;;;;;;0.89;100.00;98578.00;5116400;28;20217;-67
2022/02/05 03:11:24;;;;;;;2.40;1.83;;;;;;;0.88;100.00;98576.31;5114248;28;20690;-67
2022/02/05 03:13:50;;;;;;;3.70;2.00;;;;;;;0.85;100.00;98576.34;5116031;28;22181;-67
2022/02/05 03:16:23;;;;;;;3.53;2.00;;;;;;;0.85;100.00;98580.69;5116188;28;20525;-67
2022/02/05 03:19:08;;;;;;;3.30;1.90;;;;;;;0.82;100.00;98588.59;5116319;28;20271;-67
2022/02/05 03:21:34;;;;;;;3.67;2.00;;;;;;;0.88;100.00;98586.72;5110388;28;20210;-67
2022/02/05 03:24:02;;;;;;;3.33;2.50;;;;;;;0.89;100.00;98592.75;5115762;27;20209;-67
2022/02/05 03:26:32;;;;;;;4.33;2.30;;;;;;;0.82;100.00;98599.84;5115872;28;20212;-67
2022/02/05 03:28:58;;;;;;;4.13;2.30;;;;;;;0.78;100.00;98606.00;5115731;28;20210;-67
2022/02/05 03:31:25;;;;;;;4.10;2.53;;;;;;;0.78;100.00;98603.41;5115806;28;20214;-67
2022/02/05 03:33:51;;;;;;;4.50;2.60;;;;;;;0.83;100.00;98601.56;5115574;28;20232;-67
2022/02/05 03:36:18;;;;;;;4.27;2.30;;;;;;;0.83;100.00;98614.56;5114058;28;20237;-67
2022/02/05 03:38:44;;;;;;;4.30;2.63;;;;;;;0.85;100.00;98622.31;5115425;28;20221;-67
2022/02/05 03:41:12;;;;;;;3.77;2.43;;;;;;;0.90;100.00;98618.75;5115356;28;20224;-67
2022/02/05 03:43:38;;;;;;;5.70;2.83;;;;;;;0.83;100.00;98627.59;5115460;27;20565;-67
2022/02/05 03:46:05;;;;;;;5.80;3.03;;;;;;;0.78;100.00;98628.56;5115370;28;20214;-67
2022/02/05 03:48:31;;;;;;;4.77;3.00;;;;;;;0.82;100.00;98632.81;5115162;28;20224;-67
2022/02/05 03:50:58;;;;;;;6.07;2.40;;;;;;;0.78;100.00;98642.44;5115586;28;20223;-67
2022/02/05 03:53:24;;;;;;;4.10;2.83;;;;;;;0.81;100.00;98642.34;5115512;28;20210;-67
2022/02/05 03:55:51;;;;;;;3.37;2.87;;;;;;;0.89;100.00;98653.47;5114930;28;20238;-67
2022/02/05 03:58:19;;;;;;;4.57;2.67;;;;;;;0.81;100.00;98652.75;5115228;28;20218;-67
2022/02/05 04:00:45;;;;;;;3.77;2.73;;;;;;;0.87;100.00;98660.44;5109209;28;20210;-67
2022/02/05 04:03:13;;;;;;;3.80;2.47;;;;;;;0.90;100.00;98667.31;5113647;28;20208;-67
2022/02/05 04:05:39;;;;;;;3.20;2.60;;;;;;;0.85;100.00;98669.16;5115495;28;20220;-67
2022/02/05 04:08:09;;;;;;;5.97;2.50;;;;;;;0.89;100.00;98676.88;5114812;28;20217;-67
2022/02/05 04:10:44;;;;;;;5.97;2.67;;;;;;;1.03;100.00;98674.81;5109275;28;20288;-67
2022/02/05 04:16:00;;;;;;;5.00;2.60;;;;;;;1.46;100.00;98679.84;5083116;28;20283;-67
2022/02/05 04:18:26;;;;;;;5.33;2.70;;;;;;;1.60;100.00;98694.25;5109099;28;20210;-67
2022/02/05 04:20:53;;;;;;;4.23;2.40;;;;;;;1.79;100.00;98695.47;5114821;28;20799;-67
2022/02/05 04:23:20;;;;;;;3.07;2.10;;;;;;;1.97;100.00;98695.00;5114393;28;20760;-67
2022/02/05 04:25:47;;;;;;;6.00;2.50;;;;;;;2.08;100.00;98698.19;5114722;28;20206;-67
2022/02/05 04:28:13;;;;;;;3.23;2.20;;;;;;;2.23;100.00;98712.56;5113062;28;20251;-67
2022/02/05 04:30:40;;;;;;;4.10;2.30;;;;;;;2.34;100.00;98711.38;5114294;28;20217;-67
2022/02/05 04:33:08;;;;;;;4.87;2.53;;;;;;;2.37;100.00;98706.09;5114432;28;20217;-67
2022/02/05 04:35:34;;;;;;;5.30;2.43;;;;;;;2.41;100.00;98710.31;5114212;28;20699;-67
2022/02/05 04:38:04;;;;;;;4.27;2.20;;;;;;;2.12;100.00;98710.25;5114516;28;20216;-67
2022/02/05 04:40:35;;;;;;;4.67;2.40;;;;;;;1.92;100.00;98707.31;5114262;28;20211;-67
2022/02/05 04:43:15;;;;;;;4.73;2.30;;;;;;;1.91;100.00;98721.22;5114304;28;20222;-67
2022/02/05 04:46:10;;;;;;;3.23;2.20;;;;;;;1.96;100.00;98724.56;5114390;28;20647;-67
2022/02/05 04:48:55;;;;;;;5.87;3.43;;;;;;;1.99;100.00;98723.66;5114235;28;20211;-67
2022/02/05 04:54:28;;;;;;;4.97;2.50;;;;;;;2.20;100.00;98721.31;5090975;28;20575;-67
2022/02/05 04:57:04;;;;;;;4.07;2.30;;;;;;;2.23;100.00;98708.22;5107068;28;20210;-67
2022/02/05 05:00:04;;;;;;;4.37;2.30;;;;;;;2.31;100.00;98721.03;5113836;28;20694;-67
2022/02/05 05:02:46;;;;;;;3.40;2.57;;;;;;;2.36;100.00;98727.84;5112272;28;20225;-67
2022/02/05 05:05:35;;;;;;;5.27;2.30;;;;;;;2.42;100.00;98725.06;5113971;28;20237;-67
2022/02/05 05:11:19;;;;;;;4.00;2.50;;;;;;;2.65;100.00;98722.69;5087236;28;20276;-67
2022/02/05 05:19:26;;;;;;;3.17;2.17;;;;;;;2.70;100.00;98736.44;5113507;28;20248;-67
2022/02/05 05:21:55;;;;;;;4.73;2.47;;;;;;;2.76;100.00;98725.81;5113184;28;20214;-67
2022/02/05 05:24:21;;;;;;;5.10;2.20;;;;;;;2.75;100.00;98734.56;5113803;28;20210;-67
2022/02/05 05:26:48;;;;;;;4.10;2.30;;;;;;;2.79;100.00;98730.09;5113693;28;20221;-67
2022/02/05 05:29:14;;;;;;;3.43;1.83;;;;;;;2.85;100.00;98741.22;5107688;28;20592;-67
2022/02/05 05:31:41;;;;;;;3.50;1.90;;;;;;;2.89;100.00;98742.81;5113624;28;20218;-67
2022/02/05 05:34:07;;;;;;;4.50;2.03;;;;;;;2.93;99.98;98744.47;5113567;28;20214;-67
2022/02/05 05:36:34;;;;;;;2.77;1.90;;;;;;;2.99;99.75;98741.66;5113163;28;20233;-67
2022/02/05 05:39:02;;;;;;;3.70;2.20;;;;;;;3.03;99.53;98745.91;5113385;28;20237;-67
2022/02/05 05:41:29;;;;;;;4.30;2.57;;;;;;;3.05;99.42;98746.72;5113463;28;20572;-67
2022/02/05 05:44:06;;;;;;;4.97;2.60;;;;;;;3.01;99.75;98752.06;5112833;28;20752;-67
2022/02/05 05:46:40;;;;;;;3.97;2.20;;;;;;;3.03;100.00;98756.34;5111480;28;20689;-67
2022/02/05 05:49:13;;;;;;;3.30;2.30;;;;;;;3.02;100.00;98751.16;5113144;28;20691;-67
2022/02/05 05:51:40;;;;;;;7.17;2.40;;;;;;;3.02;100.00;98753.78;5111354;28;20272;-67
2022/02/05 05:54:08;;;;;;;3.87;2.30;;;;;;;3.03;100.00;98763.31;5113466;28;20224;-67
2022/02/05 05:56:35;;;;;;;2.23;2.03;;;;;;;3.02;100.00;98757.25;5113466;28;20240;-68
2022/02/05 05:59:02;;;;;;;3.53;2.67;;;;;;;3.00;100.00;98764.25;5113285;28;20214;-67
2022/02/05 06:01:29;;;;;;;7.33;2.47;;;;;;;3.02;100.00;98770.31;5113316;28;20241;-67
2022/02/05 06:03:56;;;;;;;3.33;2.20;;;;;;;2.97;100.00;98764.38;5112996;28;20218;-67
2022/02/05 06:06:22;;;;;;;2.73;2.03;;;;;;;3.01;100.00;98765.13;5113261;28;20233;-67
2022/02/05 06:08:49;;;;;;;4.93;2.07;;;;;;;2.99;100.00;98770.38;5113196;28;20225;-67
2022/02/05 06:11:17;;;;;;;4.50;2.47;;;;;;;2.96;100.00;98770.50;5110099;28;20210;-67
2022/02/05 06:13:43;;;;;;;3.23;2.17;;;;;;;2.96;100.00;98765.28;5111792;28;20206;-67
2022/02/05 06:16:13;;;;;;;2.77;2.27;;;;;;;3.01;100.00;98772.97;5113278;28;20240;-69
2022/02/05 06:18:40;;;;;;;4.30;2.50;;;;;;;2.92;100.00;98779.31;5112949;28;20209;-67
2022/02/05 06:21:06;;;;;;;3.60;2.43;;;;;;;3.01;100.00;98784.25;5113194;28;20675;-67
2022/02/05 06:23:33;;;;;;;5.13;2.43;;;;;;;3.01;100.00;98779.03;5112729;28;20698;-67
2022/02/05 06:25:59;;;;;;;2.27;1.97;;;;;;;3.05;100.00;98791.09;5113048;28;20214;-67
2022/02/05 06:28:27;;;;;;;5.00;2.17;;;;;;;3.06;100.00;98792.81;5113120;28;20216;-67
2022/02/05 06:30:54;;;;;;;3.57;1.80;;;;;;;3.09;100.00;98797.09;5110202;28;20225;-67
2022/02/05 06:33:21;;;;;;;3.37;2.13;;;;;;;3.14;100.00;98795.19;5112922;28;20214;-67
2022/02/05 06:35:48;;;;;;;3.93;2.53;;;;;;;3.18;100.00;98805.50;5113010;28;20579;-67
2022/02/05 06:38:14;;;;;;;3.50;2.07;;;;;;;3.17;100.00;98801.19;5111464;28;20214;-67
2022/02/05 06:40:41;;;;;;;3.03;2.03;;;;;;;3.19;100.00;98793.31;5112616;28;20694;-67
2022/02/05 06:43:07;;;;;;;3.00;2.13;;;;;;;3.21;100.00;98800.22;5112973;28;20225;-67
2022/02/05 06:45:35;;;;;;;3.07;2.10;;;;;;;3.23;100.00;98803.63;5112453;28;20656;-67
2022/02/05 06:48:01;;;;;;;4.67;2.20;;;;;;;3.25;99.12;98800.97;5113008;28;20214;-67
2022/02/05 06:50:28;;;;;;;2.77;2.10;;;;;;;3.28;99.05;98799.13;5112649;28;20214;-67
2022/02/05 06:52:55;;;;;;;4.10;2.30;;;;;;;3.27;98.75;98797.41;5112889;28;20205;-67
2022/02/05 06:55:21;;;;;;;4.27;2.50;;;;;;;3.32;98.38;98816.44;5112602;28;20242;-67
2022/02/05 06:57:47;;;;;;;4.23;2.40;;;;;;;3.31;98.32;98812.06;5115489;28;20218;-67
2022/02/05 07:00:15;;;;;;;3.03;2.10;;;;;;;3.32;98.02;98815.56;5116503;28;20210;-67
2022/02/05 07:02:46;;;;;;;4.50;3.10;;;;;;;3.30;98.20;98820.81;5116385;28;20220;-67
2022/02/05 07:05:13;;;;;;;3.67;2.20;;;;;;;3.36;98.71;98823.25;5114397;28;20670;-67
2022/02/05 07:07:40;;;;;;;2.00;1.80;;;;;;;3.36;99.08;98818.03;5116421;28;20210;-67
2022/02/05 07:10:08;;;;;;;4.07;2.00;;;;;;;3.40;98.64;98819.66;5116306;28;20565;-67
2022/02/05 07:12:39;;;;;;;4.63;2.10;;;;;;;3.43;98.58;98819.56;5108709;28;20288;-67
2022/02/05 07:15:13;;;;;;;4.43;2.17;;;;;;;3.46;98.73;98822.09;5116165;28;20230;-67
2022/02/05 07:17:41;;;;;;;4.27;2.30;;;;;;;3.47;99.44;98830.75;5116206;28;20617;-67
2022/02/05 07:20:19;;;;;;;3.33;2.33;;;;;;;3.52;100.00;98834.97;5115966;28;20237;-67
2022/02/05 07:23:07;;;;;;;4.10;2.50;;;;;;;3.56;100.00;98835.72;5115972;28;20279;-67
2022/02/05 07:31:01;;;;;;;3.60;2.07;;;;;;;3.67;99.88;98834.50;5113933;28;20239;-67
2022/02/05 07:33:28;;;;;;;3.43;2.20;;;;;;;3.71;100.00;98846.56;5115742;28;20234;-67
2022/02/05 07:35:56;;;;;;;3.70;2.13;;;;;;;3.71;98.92;98836.13;5115297;28;20233;-67
2022/02/05 07:38:22;;;;;;;3.67;1.90;;;;;;;3.71;98.80;98836.13;5115389;28;20667;-67
2022/02/05 07:40:50;;;;;;;3.33;2.40;;;;;;;3.74;98.75;98851.69;5115641;28;20210;-68
2022/02/05 07:43:17;;;;;;;3.10;2.13;;;;;;;3.78;98.59;98842.84;5115204;28;20221;-67
2022/02/05 07:45:43;;;;;;;3.20;1.90;;;;;;;3.82;97.32;98848.84;5115475;28;20218;-67
2022/02/05 07:48:10;;;;;;;2.47;1.97;;;;;;;3.82;97.26;98849.72;5115377;28;20213;-67
2022/02/05 07:50:36;;;;;;;1.67;1.50;;;;;;;3.87;97.00;98860.91;5115338;28;20210;-67
2022/02/05 07:53:04;;;;;;;3.93;2.00;;;;;;;3.94;96.77;98865.03;5115495;28;20210;-67
2022/02/05 07:55:31;;;;;;;3.50;1.90;;;;;;;3.98;96.73;98860.56;5111396;28;20234;-67
2022/02/05 07:57:57;;;;;;;4.07;2.03;;;;;;;4.04;95.87;98866.44;5114744;28;20214;-68
2022/02/05 08:00:23;;;;;;;3.47;1.80;;;;;;;4.11;95.37;98865.34;5115114;28;20221;-68
2022/02/05 08:02:52;;;;;;;5.30;2.00;;;;;;;4.05;94.34;98860.31;5115214;28;20209;-67
2022/02/05 08:05:18;;;;;;;5.57;2.33;;;;;;;3.98;95.32;98871.84;5114925;28;20218;-67
2022/02/05 08:07:45;;;;;;;4.40;1.77;;;;;;;4.03;95.82;98874.34;5114772;28;20215;-67
2022/02/05 08:10:13;;;;;;;2.67;1.90;;;;;;;4.15;95.79;98873.97;5114772;28;20688;-67
2022/02/05 08:12:42;;;;;;;3.60;2.00;;;;;;;4.27;95.80;98879.63;5114592;28;20214;-67
2022/02/05 08:15:09;;;;;;;3.53;1.83;;;;;;;4.39;95.55;98863.53;5113019;28;20586;-67
2022/02/05 08:17:37;;;;;;;3.80;1.93;;;;;;;4.36;94.70;98878.47;5106824;28;20694;-68
2022/02/05 08:20:04;;;;;;;4.23;2.33;;;;;;;4.37;95.29;98874.94;5114022;28;20724;-68
2022/02/05 08:22:31;;;;;;;3.00;2.27;;;;;;;4.40;95.33;98874.88;5112875;28;20214;-67
2022/02/05 08:24:57;;;;;;;3.10;1.90;;;;;;;4.34;95.71;98868.06;5110063;28;20209;-68
2022/02/05 08:27:26;;;;;;;2.50;1.90;;;;;;;4.35;96.06;98877.63;5112693;28;20210;-68
2022/02/05 08:29:56;;;;;;;3.57;1.93;;;;;;;4.40;96.31;98880.94;5113752;28;20758;-68
2022/02/05 08:32:25;;;;;;;3.17;1.83;;;;;;;4.53;96.24;98884.84;5114260;28;20219;-68
2022/02/05 08:34:53;;;;;;;2.03;1.80;;;;;;;4.48;96.32;98881.56;5111831;28;20215;-68
2022/02/05 08:37:20;;;;;;;4.43;2.20;;;;;;;4.47;96.39;98885.06;5114394;28;20605;-68
2022/02/05 08:39:46;;;;;;;4.07;2.13;;;;;;;4.37;95.78;98886.28;5114525;28;20220;-68
2022/02/05 08:42:13;;;;;;;4.23;1.47;;;;;;;4.23;96.09;98896.31;5114204;28;20218;-69
2022/02/05 08:44:41;;;;;;;4.50;1.70;;;;;;;4.20;95.39;98899.06;5114373;28;20209;-68
2022/02/05 08:47:07;;;;;;;3.10;1.50;;;;;;;4.10;95.69;98887.16;5114072;28;20684;-67
2022/02/05 08:49:34;;;;;;;3.30;1.73;;;;;;;3.98;96.78;98892.78;5112527;28;20201;-68
2022/02/05 08:52:03;;;;;;;6.13;2.07;;;;;;;4.02;97.01;98889.16;5114070;28;20213;-68
2022/02/05 08:54:31;;;;;;;3.33;1.80;;;;;;;4.05;96.38;98888.22;5111721;28;20689;-68
2022/02/05 08:56:58;;;;;;;3.60;1.77;;;;;;;4.14;95.30;98887.91;5113853;28;20238;-68
2022/02/05 08:59:26;;;;;;;3.43;2.17;;;;;;;4.31;94.53;98888.22;5113897;28;20210;-68
2022/02/05 09:01:59;;;;;;;4.43;2.00;;;;;;;4.38;93.79;98898.47;5113915;28;20215;-68
2022/02/05 09:04:32;;;;;;;3.67;1.90;;;;;;;4.46;93.69;98887.75;5113966;28;20279;-68
2022/02/05 09:07:00;;;;;;;5.83;2.07;;;;;;;4.43;92.07;98891.31;5113916;28;20222;-68
2022/02/05 09:09:44;;;;;;;5.67;1.67;;;;;;;4.46;92.64;98893.00;5113954;28;20628;-68
2022/02/05 09:12:31;;;;;;;3.43;1.70;;;;;;;4.54;92.38;98899.69;5111108;28;20294;-68
2022/02/05 09:14:57;;;;;;;4.67;1.83;;;;;;;4.51;93.11;98899.78;5112041;28;20210;-68
2022/02/05 09:17:25;;;;;;;3.73;1.60;;;;;;;4.50;92.84;98894.56;5113792;28;20244;-68
2022/02/05 09:19:52;;;;;;;3.80;1.87;;;;;;;4.42;93.54;98892.22;5112714;28;20636;-68
2022/02/05 09:22:18;;;;;;;5.87;1.90;;;;;;;4.37;92.57;98902.00;5113682;28;20220;-68
2022/02/05 09:24:45;;;;;;;3.17;1.83;;;;;;;4.46;93.17;98900.84;5113406;28;20210;-68
2022/02/05 09:27:13;;;;;;;3.70;2.10;;;;;;;4.46;93.26;98896.44;5111527;28;20211;-68
2022/02/05 09:29:45;;;;;;;4.10;1.90;;;;;;;4.38;93.69;98892.34;5112408;28;20579;-68
2022/02/05 09:32:11;;;;;;;4.70;1.70;;;;;;;4.43;93.04;98896.56;5109292;28;20223;-67
2022/02/05 09:34:39;;;;;;;4.43;1.97;;;;;;;4.54;93.58;98897.06;5112240;28;20231;-67
2022/02/05 09:37:05;;;;;;;4.33;2.10;;;;;;;4.62;91.50;98908.13;5112426;28;20254;-67
2022/02/05 09:39:32;;;;;;;4.67;1.90;;;;;;;4.64;90.72;98895.00;5112430;28;20215;-67
2022/02/05 09:41:58;;;;;;;5.23;2.17;;;;;;;4.72;89.22;98893.84;5110243;28;20215;-67
2022/02/05 09:44:28;;;;;;;3.37;1.50;;;;;;;4.68;86.92;98886.97;5111780;28;20212;-67
2022/02/05 09:46:55;;;;;;;2.70;1.50;;;;;;;4.78;88.56;98893.63;5106459;28;20220;-67
2022/02/05 09:49:21;;;;;;;3.50;2.20;;;;;;;4.82;87.85;98900.44;5111730;28;20703;-67
2022/02/05 09:52:05;;;;;;;4.53;1.87;;;;;;;4.80;88.39;98899.66;5111686;28;20207;-67
2022/02/05 09:54:32;;;;;;;4.00;1.67;;;;;;;4.87;88.10;98895.91;5111792;28;20624;-67
2022/02/05 09:56:58;;;;;;;4.77;1.70;;;;;;;4.84;87.08;98903.84;5111956;28;20612;-67
2022/02/05 09:59:25;;;;;;;3.10;1.87;;;;;;;4.87;87.20;98897.66;5111880;28;20215;-68
2022/02/05 10:02:11;;;;;;;3.03;1.37;;;;;;;4.96;84.64;98908.69;5111942;28;20211;-67
2022/02/05 10:04:52;;;;;;;3.07;1.37;;;;;;;5.14;86.08;98910.66;5106082;28;20235;-67
2022/02/05 10:07:20;;;;;;;2.93;1.47;;;;;;;5.14;85.95;98905.41;5107779;28;20218;-68
2022/02/05 10:09:54;;;;;;;2.57;1.50;;;;;;;5.07;85.98;98908.31;5111865;28;20564;-67
2022/02/05 10:12:20;;;;;;;4.37;1.63;;;;;;;5.11;86.92;98912.53;5111848;28;20210;-67
2022/02/05 10:14:52;;;;;;;3.33;1.37;;;;;;;5.15;85.07;98915.00;5111644;28;20213;-68
2022/02/05 10:17:19;;;;;;;4.83;1.50;;;;;;;5.08;84.16;98913.50;5111456;28;20240;-68
2022/02/05 10:19:49;;;;;;;4.73;1.37;;;;;;;5.12;83.27;98915.09;5111430;28;20243;-67
2022/02/05 10:22:15;;;;;;;3.20;1.37;;;;;;;5.12;84.20;98909.88;5111719;28;20222;-68
2022/02/05 10:24:50;;;;;;;4.50;1.60;;;;;;;5.35;83.19;98912.53;5111768;28;20216;-68
2022/02/05 10:27:28;;;;;;;6.37;1.50;;;;;;;5.47;81.09;98912.09;5104299;28;20578;-68
2022/02/05 10:30:09;;;;;;;4.07;1.60;;;;;;;5.64;80.21;98909.69;5111779;28;20241;-68
2022/02/05 10:32:40;;;;;;;2.83;1.40;;;;;;;5.96;79.46;98914.59;5115713;28;20215;-68
2022/02/05 10:35:19;;;;;;;5.10;1.30;;;;;;;6.16;77.15;98912.06;5106011;28;20666;-68
2022/02/05 10:37:53;;;;;;;4.13;1.30;;;;;;;6.30;73.88;98912.34;5115428;28;20246;-67
2022/02/05 10:40:23;;;;;;;2.33;1.30;;;;;;;6.37;74.03;98913.84;5115560;28;20222;-67
2022/02/05 10:45:32;;;;;;;1.60;1.10;;;;;;;6.47;74.43;98919.56;5110208;28;20221;-67
2022/02/05 10:48:00;;;;;;;3.47;1.43;;;;;;;6.55;73.35;98920.97;5112300;28;20217;-67
2022/02/05 10:50:29;;;;;;;3.37;1.30;;;;;;;6.71;73.00;98923.84;5112229;28;20209;-66
2022/02/05 10:53:00;;;;;;;3.47;1.23;;;;;;;6.81;72.71;98914.63;5114126;28;20216;-67
2022/02/05 10:55:44;;;;;;;2.20;1.10;;;;;;;6.91;71.67;98919.44;5113905;28;20667;-67
2022/02/05 10:58:18;;;;;;;5.33;1.60;;;;;;;6.92;73.55;98929.06;5113482;28;20290;-68
2022/02/05 11:06:13;;;;;;;2.93;1.10;;;;;;;7.22;71.63;98922.47;5114853;28;20217;-68
2022/02/05 11:08:40;;;;;;;4.13;1.30;;;;;;;7.30;73.40;98928.25;5115072;28;20362;-67
2022/02/05 11:13:59;;;;;;;4.13;1.47;;;;;;;7.45;69.83;98924.94;5114515;28;20293;-67
2022/02/05 11:19:10;;;;;;;4.27;1.17;;;;;;;7.50;69.24;98920.34;5114491;28;20248;-68
2022/02/05 11:21:37;;;;;;;3.93;1.20;;;;;;;7.52;67.98;98910.59;5114753;28;20222;-68
2022/02/05 11:24:07;;;;;;;4.50;1.20;;;;;;;7.41;64.01;98926.84;5114582;28;20221;-67
2022/02/05 11:26:36;;;;;;;3.27;1.20;;;;;;;7.31;62.31;98916.81;5114378;28;20266;-67
2022/02/05 11:29:05;;;;;;;3.57;1.20;;;;;;;7.15;64.69;98910.50;5112850;28;20220;-68
2022/02/05 11:31:36;;;;;;;5.80;1.40;;;;;;;6.93;64.55;98915.00;5114591;28;20224;-68
2022/02/05 11:34:24;;;;;;;3.07;0.90;;;;;;;6.77;65.80;98918.31;5114192;28;20240;-68
2022/02/05 11:37:04;;;;;;;2.87;1.13;;;;;;;6.63;66.42;98911.00;5114414;28;20242;-67
2022/02/05 11:39:46;;;;;;;2.97;1.00;;;;;;;6.61;67.55;98910.22;5114513;28;20221;-67
2022/02/05 11:42:28;;;;;;;2.53;1.10;;;;;;;6.59;67.15;98908.56;5107563;28;20214;-67
2022/02/05 11:44:56;;;;;;;3.50;0.93;;;;;;;6.62;64.17;98909.31;5108757;28;20213;-67
2022/02/05 11:47:25;;;;;;;2.37;1.10;;;;;;;6.58;63.48;98902.47;5114202;27;20210;-68
2022/02/05 11:50:20;;;;;;;3.13;1.10;;;;;;;6.57;66.93;98905.13;5106284;28;20213;-68
2022/02/05 11:52:59;;;;;;;2.03;1.23;;;;;;;6.49;66.22;98901.97;5108315;28;20217;-67
2022/02/05 11:55:35;;;;;;;2.07;1.00;;;;;;;6.40;68.75;98890.06;5109887;28;20213;-67
2022/02/05 11:58:05;;;;;;;3.40;1.00;;;;;;;6.42;64.83;98885.59;5113799;28;20237;-67
2022/02/05 12:00:34;;;;;;;2.83;1.00;;;;;;;6.25;66.56;98888.09;5112840;28;20224;-68
2022/02/05 12:03:17;;;;;;;2.00;0.93;;;;;;;6.23;68.90;98895.16;5114013;28;20303;-68
2022/02/05 12:05:54;;;;;;;2.70;1.40;;;;;;;6.25;66.76;98892.47;5107457;28;20216;-68
2022/02/05 12:08:27;;;;;;;3.13;1.20;;;;;;;6.48;64.83;98890.59;5113906;28;20224;-68
2022/02/05 12:10:57;;;;;;;1.70;1.10;;;;;;;6.67;65.12;98886.34;5113801;28;20223;-69
2022/02/05 12:13:28;;;;;;;1.83;0.90;;;;;;;6.89;63.46;98888.91;5113475;28;20296;-68
2022/02/05 12:16:19;;;;;;;3.77;0.90;;;;;;;7.16;61.33;98890.34;5113459;28;20214;-68
2022/02/05 12:18:58;;;;;;;1.87;1.30;;;;;;;7.17;62.43;98887.66;5113276;28;20252;-68
2022/02/05 12:21:29;;;;;;;1.57;0.97;;;;;;;7.26;63.31;98891.66;5104652;28;20588;-68
2022/02/05 12:27:01;;;;;;;2.87;1.10;;;;;;;7.27;61.00;98885.47;5111689;28;20702;-68
2022/02/05 12:29:33;;;;;;;1.13;0.80;;;;;;;7.22;62.93;98871.66;5113495;28;20214;-68
2022/02/05 12:32:01;;;;;;;4.37;1.30;;;;;;;7.18;59.87;98873.56;5113344;28;20229;-68
2022/02/05 12:34:35;;;;;;;4.53;1.20;;;;;;;7.20;61.10;98876.16;5113486;28;20209;-68
2022/02/05 12:37:03;;;;;;;1.40;0.80;;;;;;;7.25;61.90;98880.28;5113323;28;20251;-68
2022/02/05 12:39:32;;;;;;;1.63;1.10;;;;;;;7.27;61.27;98860.00;5113112;28;20210;-69
2022/02/05 12:42:01;;;;;;;2.63;1.00;;;;;;;7.34;61.19;98867.56;5113254;27;20209;-68
2022/02/05 12:44:29;;;;;;;2.60;1.00;;;;;;;7.38;62.76;98870.91;5113115;28;20210;-68
2022/02/05 12:47:03;;;;;;;1.80;0.90;;;;;;;7.27;61.53;98862.63;5113084;28;20222;-68
2022/02/05 12:49:36;;;;;;;3.67;1.40;;;;;;;7.14;61.77;98861.47;5111487;28;20305;-68
2022/02/05 12:52:04;;;;;;;4.33;1.37;;;;;;;7.13;63.02;98859.78;5112887;28;20213;-68
2022/02/05 12:54:33;;;;;;;2.77;1.10;;;;;;;7.34;63.06;98848.31;5112746;28;20218;-68
2022/02/05 12:57:00;;;;;;;1.57;0.90;;;;;;;7.66;61.29;98866.13;5112983;28;20241;-68
2022/02/05 12:59:32;;;;;;;1.87;0.80;;;;;;;7.83;59.66;98851.25;5112853;28;20592;-68
2022/02/05 13:02:02;;;;;;;1.97;1.10;;;;;;;7.69;61.89;98860.69;5112527;28;20217;-68
2022/02/05 13:04:30;;;;;;;1.90;0.90;;;;;;;7.52;62.83;98858.84;5112516;28;20220;-68
2022/02/05 13:07:07;;;;;;;2.97;0.90;;;;;;;7.44;62.11;98863.63;5112592;28;20221;-68
2022/02/05 13:09:40;;;;;;;1.10;0.87;;;;;;;7.47;61.95;98850.31;5107712;28;20213;-68
2022/02/05 13:12:08;;;;;;;3.00;1.00;;;;;;;7.63;64.04;98858.34;5109951;28;20212;-68
2022/02/05 13:14:40;;;;;;;2.00;1.00;;;;;;;7.98;62.31;98857.56;5110538;28;20221;-68
2022/02/05 13:17:21;;;;;;;1.90;1.10;;;;;;;8.33;60.53;98849.72;5112205;28;20277;-68
2022/02/05 13:20:04;;;;;;;2.90;1.17;;;;;;;8.42;60.95;98848.41;5112351;28;20238;-68
2022/02/05 13:28:08;;;;;;;2.53;1.23;;;;;;;8.53;60.69;98835.56;5110717;28;20304;-69
2022/02/05 13:33:45;;;;;;;4.10;1.37;;;;;;;8.28;60.09;98830.66;5108469;28;20217;-69
2022/02/05 13:36:15;;;;;;;2.03;1.00;;;;;;;8.16;61.64;98830.38;5105685;28;20271;-69